createdAt,value
2022-12-22T00:00:38.978Z,54.30
2022-12-22T00:01:40.702Z,49.60
2022-12-22T00:02:39.258Z,46.20
2022-12-22T00:03:39.064Z,50.60
2022-12-22T00:04:38.927Z,61.90
2022-12-22T00:05:38.920Z,45.30
2022-12-22T00:06:38.930Z,60.20
2022-12-22T00:07:38.895Z,44.90
2022-12-22T00:08:38.884Z,46.20
2022-12-22T00:09:38.869Z,49.90
2022-12-22T00:10:38.869Z,46.90
2022-12-22T00:11:38.873Z,56.30
2022-12-22T00:12:38.875Z,53.00
2022-12-22T00:13:38.824Z,69.70
2022-12-22T00:14:38.826Z,51.10
2022-12-22T00:15:38.807Z,45.90
2022-12-22T00:16:38.924Z,59.10
2022-12-22T00:17:38.781Z,54.00
2022-12-22T00:18:38.771Z,73.10
2022-12-22T00:19:38.761Z,47.50
2022-12-22T00:20:38.793Z,56.60
2022-12-22T00:21:38.793Z,51.10
2022-12-22T00:22:38.743Z,63.10
2022-12-22T00:23:38.720Z,50.30
2022-12-22T00:24:38.708Z,59.80
2022-12-22T00:25:38.716Z,54.10
2022-12-22T00:26:38.748Z,53.80
2022-12-22T00:27:43.743Z,57.80
2022-12-22T00:28:38.698Z,46.80
2022-12-22T00:29:38.656Z,53.10
2022-12-22T00:30:38.689Z,52.70
2022-12-22T00:31:38.655Z,58.70
2022-12-22T00:32:38.612Z,65.60
2022-12-22T00:33:38.628Z,48.30
2022-12-22T00:34:38.653Z,71.30
2022-12-22T00:35:38.584Z,58.00
2022-12-22T00:36:38.591Z,60.80
2022-12-22T00:37:38.566Z,69.70
2022-12-22T00:38:38.552Z,58.10
2022-12-22T00:39:38.556Z,59.30
2022-12-22T00:40:38.556Z,56.90
2022-12-22T00:41:38.544Z,67.70
2022-12-22T00:42:38.559Z,65.90
2022-12-22T00:43:38.524Z,86.30
2022-12-22T00:44:38.499Z,58.70
2022-12-22T00:45:38.500Z,55.70
2022-12-22T00:46:38.504Z,56.50
2022-12-22T00:47:38.451Z,75.10
2022-12-22T00:48:38.463Z,58.10
2022-12-22T00:49:38.432Z,76.80
2022-12-22T00:50:38.418Z,57.10
2022-12-22T00:51:38.457Z,95.70
2022-12-22T00:52:38.389Z,77.30
2022-12-22T00:53:38.387Z,78.30
2022-12-22T00:54:38.376Z,72.30
2022-12-22T00:55:38.375Z,60.60
2022-12-22T00:56:38.373Z,60.70
2022-12-22T00:57:38.345Z,73.60
2022-12-22T00:58:38.372Z,79.00
2022-12-22T00:59:38.317Z,89.00
2022-12-22T01:00:38.302Z,88.80
2022-12-22T01:01:38.497Z,74.10
2022-12-22T01:02:38.561Z,61.30
2022-12-22T01:03:38.313Z,77.30
2022-12-22T01:04:38.267Z,111.00
2022-12-22T01:05:38.258Z,68.70
2022-12-22T01:06:38.282Z,64.00
2022-12-22T01:07:38.234Z,108.20
2022-12-22T01:08:38.216Z,71.90
2022-12-22T01:09:38.201Z,86.50
2022-12-22T01:10:38.265Z,66.90
2022-12-22T01:11:38.499Z,66.50
2022-12-22T01:12:38.201Z,54.20
2022-12-22T01:13:38.182Z,62.80
2022-12-22T01:14:38.154Z,87.20
2022-12-22T01:15:38.224Z,52.40
2022-12-22T01:16:38.212Z,97.80
2022-12-22T01:17:38.142Z,75.40
2022-12-22T01:18:38.106Z,56.60
2022-12-22T01:19:38.098Z,74.60
2022-12-22T01:20:38.084Z,86.50
2022-12-22T01:21:38.089Z,73.80
2022-12-22T01:22:38.062Z,61.30
2022-12-22T01:23:38.048Z,47.80
2022-12-22T01:24:38.033Z,138.70
2022-12-22T01:25:38.031Z,184.80
2022-12-22T01:26:38.086Z,134.70
2022-12-22T01:27:38.028Z,78.40
2022-12-22T01:28:37.998Z,65.70
2022-12-22T01:29:37.986Z,62.80
2022-12-22T01:30:38.011Z,60.30
2022-12-22T01:31:38.009Z,59.80
2022-12-22T01:32:37.943Z,76.60
2022-12-22T01:33:37.937Z,60.30
2022-12-22T01:34:37.923Z,76.50
2022-12-22T01:35:37.913Z,78.10
2022-12-22T01:36:37.956Z,67.80
2022-12-22T01:37:37.918Z,60.90
2022-12-22T01:38:37.906Z,73.40
2022-12-22T01:39:37.871Z,75.40
2022-12-22T01:40:37.859Z,79.70
2022-12-22T01:41:37.874Z,75.60
2022-12-22T01:42:37.843Z,64.60
2022-12-22T01:43:37.854Z,61.70
2022-12-22T01:44:37.851Z,73.90
2022-12-22T01:45:37.808Z,63.00
2022-12-22T01:46:37.918Z,58.20
2022-12-22T01:47:37.797Z,71.80
2022-12-22T01:48:37.763Z,58.40
2022-12-22T01:49:37.834Z,68.10
2022-12-22T01:50:37.749Z,103.50
2022-12-22T01:51:37.757Z,55.60
2022-12-22T01:52:37.734Z,104.30
2022-12-22T01:53:37.722Z,105.10
2022-12-22T01:54:37.711Z,66.00
2022-12-22T01:55:37.692Z,66.80
2022-12-22T01:56:37.723Z,83.60
2022-12-22T01:57:37.697Z,70.30
2022-12-22T01:58:37.652Z,100.30
2022-12-22T01:59:37.871Z,52.10
2022-12-22T02:00:37.646Z,77.90
2022-12-22T02:01:38.024Z,52.80
2022-12-22T02:02:37.838Z,68.90
2022-12-22T02:03:37.691Z,87.00
2022-12-22T02:04:37.635Z,72.50
2022-12-22T02:05:37.600Z,70.20
2022-12-22T02:06:37.563Z,80.10
2022-12-22T02:07:37.586Z,76.60
2022-12-22T02:08:37.552Z,109.70
2022-12-22T02:09:37.538Z,87.20
2022-12-22T02:10:37.539Z,94.80
2022-12-22T02:11:37.524Z,105.60
2022-12-22T02:12:37.502Z,98.50
2022-12-22T02:13:37.513Z,52.00
2022-12-22T02:14:37.480Z,82.10
2022-12-22T02:15:37.601Z,67.00
2022-12-22T02:16:37.528Z,64.70
2022-12-22T02:17:37.460Z,102.00
2022-12-22T02:18:37.429Z,94.00
2022-12-22T02:19:37.450Z,193.40
2022-12-22T02:20:37.419Z,246.20
2022-12-22T02:21:37.415Z,59.90
2022-12-22T02:22:37.418Z,83.50
2022-12-22T02:23:37.374Z,102.80
2022-12-22T02:24:37.393Z,88.30
2022-12-22T02:25:37.383Z,71.10
2022-12-22T02:26:37.349Z,86.30
2022-12-22T02:27:37.327Z,96.10
2022-12-22T02:28:37.367Z,94.00
2022-12-22T02:29:37.316Z,59.70
2022-12-22T02:30:37.340Z,135.40
2022-12-22T02:31:37.393Z,93.10
2022-12-22T02:32:37.274Z,182.10
2022-12-22T02:33:37.285Z,100.50
2022-12-22T02:34:37.286Z,71.50
2022-12-22T02:35:37.280Z,67.20
2022-12-22T02:36:37.230Z,213.20
2022-12-22T02:37:37.256Z,171.30
2022-12-22T02:38:37.209Z,167.40
2022-12-22T02:39:37.193Z,66.10
2022-12-22T02:40:41.354Z,58.10
2022-12-22T02:41:37.206Z,52.70
2022-12-22T02:42:37.166Z,62.00
2022-12-22T02:43:37.190Z,71.20
2022-12-22T02:44:37.146Z,72.90
2022-12-22T02:45:37.126Z,55.40
2022-12-22T02:46:37.191Z,83.20
2022-12-22T02:47:37.114Z,137.20
2022-12-22T02:48:37.101Z,56.00
2022-12-22T02:49:37.161Z,116.90
2022-12-22T02:50:37.098Z,82.90
2022-12-22T02:51:37.075Z,85.00
2022-12-22T02:52:37.056Z,92.40
2022-12-22T02:53:37.040Z,61.60
2022-12-22T02:54:37.030Z,93.00
2022-12-22T02:55:37.041Z,72.90
2022-12-22T02:56:37.043Z,65.20
2022-12-22T02:57:37.033Z,62.20
2022-12-22T02:58:37.018Z,66.80
2022-12-22T02:59:36.977Z,63.80
2022-12-22T03:00:36.973Z,84.80
2022-12-22T03:01:37.268Z,136.60
2022-12-22T03:02:37.211Z,85.20
2022-12-22T03:03:37.234Z,82.00
2022-12-22T03:04:36.937Z,63.00
2022-12-22T03:05:36.916Z,93.70
2022-12-22T03:06:36.923Z,86.50
2022-12-22T03:07:37.183Z,91.50
2022-12-22T03:08:36.931Z,82.90
2022-12-22T03:09:36.865Z,199.90
2022-12-22T03:10:36.853Z,171.50
2022-12-22T03:11:36.845Z,58.10
2022-12-22T03:12:36.831Z,106.60
2022-12-22T03:13:36.847Z,92.40
2022-12-22T03:14:36.814Z,95.80
2022-12-22T03:15:36.792Z,54.40
2022-12-22T03:16:36.843Z,72.90
2022-12-22T03:17:36.773Z,96.80
2022-12-22T03:18:36.767Z,73.60
2022-12-22T03:19:36.786Z,59.40
2022-12-22T03:20:36.748Z,62.80
2022-12-22T03:21:36.724Z,77.20
2022-12-22T03:22:36.740Z,88.40
2022-12-22T03:23:36.715Z,61.50
2022-12-22T03:24:36.704Z,69.10
2022-12-22T03:25:36.742Z,58.40
2022-12-22T03:26:36.666Z,112.10
2022-12-22T03:27:36.680Z,60.20
2022-12-22T03:28:36.647Z,66.10
2022-12-22T03:29:36.649Z,138.20
2022-12-22T03:30:36.626Z,138.10
2022-12-22T03:31:36.696Z,64.40
2022-12-22T03:32:36.633Z,96.80
2022-12-22T03:33:36.599Z,70.20
2022-12-22T03:34:36.580Z,90.60
2022-12-22T03:35:36.572Z,79.00
2022-12-22T03:36:36.588Z,58.70
2022-12-22T03:37:36.643Z,56.80
2022-12-22T03:38:36.545Z,56.70
2022-12-22T03:39:36.538Z,78.30
2022-12-22T03:40:36.534Z,57.50
2022-12-22T03:41:36.505Z,60.00
2022-12-22T03:42:36.490Z,95.30
2022-12-22T03:43:36.512Z,87.90
2022-12-22T03:44:36.476Z,61.10
2022-12-22T03:45:36.462Z,74.80
2022-12-22T03:46:36.491Z,59.60
2022-12-22T03:47:36.439Z,56.70
2022-12-22T03:48:36.419Z,59.00
2022-12-22T03:49:36.455Z,91.70
2022-12-22T03:50:36.408Z,77.40
2022-12-22T03:51:36.395Z,100.40
2022-12-22T03:52:36.390Z,71.40
2022-12-22T03:53:36.381Z,181.70
2022-12-22T03:54:36.378Z,146.50
2022-12-22T03:55:36.437Z,77.30
2022-12-22T03:56:36.369Z,73.20
2022-12-22T03:57:36.328Z,132.60
2022-12-22T03:58:36.350Z,56.60
2022-12-22T03:59:36.309Z,100.10
2022-12-22T04:00:36.315Z,72.30
2022-12-22T04:01:36.426Z,71.90
2022-12-22T04:02:36.454Z,119.50
2022-12-22T04:03:36.265Z,205.50
2022-12-22T04:04:36.248Z,186.50
2022-12-22T04:05:36.237Z,202.90
2022-12-22T04:06:36.251Z,60.00
2022-12-22T04:07:36.242Z,269.70
2022-12-22T04:08:36.200Z,271.90
2022-12-22T04:09:36.205Z,84.80
2022-12-22T04:10:36.188Z,71.60
2022-12-22T04:11:36.186Z,68.20
2022-12-22T04:12:36.176Z,96.10
2022-12-22T04:13:36.377Z,66.10
2022-12-22T04:14:36.143Z,59.10
2022-12-22T04:15:36.136Z,97.00
2022-12-22T04:16:36.200Z,63.60
2022-12-22T04:17:36.110Z,110.90
2022-12-22T04:18:36.090Z,65.50
2022-12-22T04:19:36.112Z,102.70
2022-12-22T04:20:36.072Z,90.40
2022-12-22T04:21:36.085Z,135.10
2022-12-22T04:22:36.053Z,80.80
2022-12-22T04:23:36.033Z,155.00
2022-12-22T04:24:36.046Z,91.70
2022-12-22T04:25:36.045Z,125.60
2022-12-22T04:26:36.026Z,69.70
2022-12-22T04:27:36.018Z,142.70
2022-12-22T04:28:36.033Z,273.50
2022-12-22T04:29:35.968Z,140.60
2022-12-22T04:30:35.973Z,180.40
2022-12-22T04:31:36.054Z,169.90
2022-12-22T04:32:35.957Z,346.90
2022-12-22T04:33:35.934Z,278.90
2022-12-22T04:34:35.935Z,59.10
2022-12-22T04:35:35.926Z,60.90
2022-12-22T04:36:35.900Z,138.70
2022-12-22T04:37:35.907Z,62.30
2022-12-22T04:38:35.912Z,357.20
2022-12-22T04:39:35.863Z,250.40
2022-12-22T04:40:35.854Z,183.00
2022-12-22T04:41:35.859Z,48.40
2022-12-22T04:42:35.851Z,58.40
2022-12-22T04:43:35.870Z,62.20
2022-12-22T04:44:35.805Z,64.80
2022-12-22T04:45:35.844Z,70.80
2022-12-22T04:46:35.786Z,55.50
2022-12-22T04:47:35.764Z,66.00
2022-12-22T04:48:35.770Z,63.90
2022-12-22T04:49:35.779Z,77.70
2022-12-22T04:50:35.761Z,63.80
2022-12-22T04:51:35.725Z,65.20
2022-12-22T04:52:35.716Z,63.70
2022-12-22T04:53:35.707Z,64.10
2022-12-22T04:54:35.724Z,61.60
2022-12-22T04:55:35.685Z,63.90
2022-12-22T04:56:35.674Z,86.70
2022-12-22T04:57:40.447Z,57.60
2022-12-22T04:58:35.658Z,314.10
2022-12-22T04:59:35.650Z,271.00
2022-12-22T05:00:35.657Z,239.50
2022-12-22T05:01:35.782Z,147.00
2022-12-22T05:02:35.742Z,161.90
2022-12-22T05:03:35.634Z,105.00
2022-12-22T05:04:35.581Z,65.20
2022-12-22T05:05:35.582Z,175.80
2022-12-22T05:06:35.604Z,60.30
2022-12-22T05:07:35.546Z,61.20
2022-12-22T05:08:35.618Z,80.70
2022-12-22T05:09:35.529Z,293.20
2022-12-22T05:10:35.517Z,62.70
2022-12-22T05:11:35.521Z,181.90
2022-12-22T05:12:35.540Z,246.40
2022-12-22T05:13:35.498Z,183.80
2022-12-22T05:14:35.513Z,127.10
2022-12-22T05:15:35.461Z,237.00
2022-12-22T05:16:35.534Z,64.70
2022-12-22T05:17:35.457Z,118.30
2022-12-22T05:18:35.431Z,213.30
2022-12-22T05:19:35.421Z,176.80
2022-12-22T05:20:35.411Z,88.60
2022-12-22T05:21:35.424Z,160.80
2022-12-22T05:22:35.417Z,76.00
2022-12-22T05:23:35.366Z,79.80
2022-12-22T05:24:35.402Z,82.40
2022-12-22T05:25:35.826Z,77.00
2022-12-22T05:26:35.347Z,231.50
2022-12-22T05:27:35.325Z,116.70
2022-12-22T05:28:35.373Z,128.40
2022-12-22T05:29:35.309Z,127.30
2022-12-22T05:30:35.415Z,181.90
2022-12-22T05:31:35.290Z,106.70
2022-12-22T05:32:35.296Z,113.40
2022-12-22T05:33:35.281Z,73.10
2022-12-22T05:34:35.270Z,159.70
2022-12-22T05:35:35.228Z,372.40
2022-12-22T05:36:35.231Z,69.20
2022-12-22T05:37:35.208Z,110.90
2022-12-22T05:38:35.206Z,102.60
2022-12-22T05:39:35.225Z,111.50
2022-12-22T05:40:35.207Z,336.30
2022-12-22T05:41:35.164Z,93.80
2022-12-22T05:42:35.160Z,136.90
2022-12-22T05:43:35.160Z,182.60
2022-12-22T05:44:35.148Z,97.50
2022-12-22T05:45:35.150Z,278.70
2022-12-22T05:46:35.169Z,142.80
2022-12-22T05:47:35.101Z,234.80
2022-12-22T05:48:38.715Z,278.90
2022-12-22T05:49:35.077Z,68.70
2022-12-22T05:50:35.133Z,310.30
2022-12-22T05:51:35.051Z,510.40
2022-12-22T05:52:35.190Z,81.00
2022-12-22T05:53:35.038Z,67.80
2022-12-22T05:54:35.026Z,124.20
2022-12-22T05:55:35.004Z,114.00
2022-12-22T05:56:35.030Z,86.10
2022-12-22T05:57:34.987Z,121.70
2022-12-22T05:58:35.019Z,116.00
2022-12-22T05:59:34.967Z,104.00
2022-12-22T06:00:34.961Z,287.30
2022-12-22T06:01:34.988Z,90.80
2022-12-22T06:02:35.096Z,123.10
2022-12-22T06:03:35.166Z,145.20
2022-12-22T06:04:34.911Z,179.20
2022-12-22T06:05:34.912Z,374.80
2022-12-22T06:06:34.971Z,350.10
2022-12-22T06:07:34.920Z,415.70
2022-12-22T06:08:34.880Z,558.20
2022-12-22T06:09:34.867Z,439.20
2022-12-22T06:10:34.849Z,386.10
2022-12-22T06:11:34.826Z,308.30
2022-12-22T06:12:34.861Z,162.80
2022-12-22T06:13:34.821Z,155.90
2022-12-22T06:14:34.798Z,270.30
2022-12-22T06:15:34.969Z,170.40
2022-12-22T06:16:34.930Z,235.30
2022-12-22T06:17:39.108Z,205.00
2022-12-22T06:18:34.904Z,274.40
2022-12-22T06:19:34.782Z,165.00
2022-12-22T06:20:34.765Z,150.60
2022-12-22T06:21:34.722Z,475.80
2022-12-22T06:22:34.708Z,110.60
2022-12-22T06:23:34.701Z,588.50
2022-12-22T06:24:34.719Z,249.00
2022-12-22T06:25:34.682Z,486.70
2022-12-22T06:26:34.659Z,386.80
2022-12-22T06:27:34.675Z,198.80
2022-12-22T06:28:34.642Z,271.90
2022-12-22T06:29:34.632Z,180.80
2022-12-22T06:30:34.647Z,395.70
2022-12-22T06:31:34.728Z,187.30
2022-12-22T06:32:34.593Z,236.10
2022-12-22T06:33:34.594Z,294.80
2022-12-22T06:34:34.572Z,121.50
2022-12-22T06:35:34.592Z,199.60
2022-12-22T06:36:34.567Z,267.80
2022-12-22T06:37:34.569Z,219.30
2022-12-22T06:38:34.550Z,297.40
2022-12-22T06:39:34.544Z,278.40
2022-12-22T06:40:34.550Z,322.80
2022-12-22T06:41:34.530Z,207.50
2022-12-22T06:42:34.488Z,354.90
2022-12-22T06:43:34.478Z,137.60
2022-12-22T06:44:34.467Z,355.30
2022-12-22T06:45:34.472Z,320.90
2022-12-22T06:46:34.590Z,393.70
2022-12-22T06:47:34.428Z,406.00
2022-12-22T06:48:34.440Z,302.20
2022-12-22T06:49:34.410Z,177.00
2022-12-22T06:50:34.397Z,420.40
2022-12-22T06:51:34.416Z,236.40
2022-12-22T06:52:34.373Z,327.60
2022-12-22T06:53:34.366Z,479.30
2022-12-22T06:54:34.392Z,437.40
2022-12-22T06:55:34.343Z,382.50
2022-12-22T06:56:34.367Z,359.80
2022-12-22T06:57:34.335Z,332.90
2022-12-22T06:58:34.310Z,342.80
2022-12-22T06:59:34.304Z,290.80
2022-12-22T07:00:34.289Z,321.10
2022-12-22T07:01:34.463Z,426.90
2022-12-22T07:02:34.649Z,336.70
2022-12-22T07:03:34.348Z,243.60
2022-12-22T07:04:34.256Z,373.00
2022-12-22T07:05:34.241Z,446.10
2022-12-22T07:06:34.222Z,187.30
2022-12-22T07:07:34.229Z,245.80
2022-12-22T07:08:34.190Z,396.70
2022-12-22T07:09:34.197Z,331.90
2022-12-22T07:10:34.171Z,250.50
2022-12-22T07:11:34.168Z,402.20
2022-12-22T07:12:34.187Z,569.70
2022-12-22T07:13:34.301Z,349.30
2022-12-22T07:14:34.124Z,153.30
2022-12-22T07:15:34.181Z,200.40
2022-12-22T07:16:34.242Z,289.70
2022-12-22T07:17:34.116Z,196.10
2022-12-22T07:18:34.169Z,214.30
2022-12-22T07:19:34.115Z,417.00
2022-12-22T07:20:34.077Z,376.10
2022-12-22T07:21:34.053Z,464.30
2022-12-22T07:22:34.064Z,315.40
2022-12-22T07:23:34.055Z,471.20
2022-12-22T07:24:34.024Z,402.00
2022-12-22T07:25:34.005Z,473.60
2022-12-22T07:26:33.997Z,394.60
2022-12-22T07:27:34.031Z,349.90
2022-12-22T07:28:33.978Z,386.20
2022-12-22T07:29:33.967Z,294.70
2022-12-22T07:30:33.961Z,396.20
2022-12-22T07:31:34.047Z,340.10
2022-12-22T07:32:33.960Z,378.10
2022-12-22T07:33:33.942Z,416.90
2022-12-22T07:34:33.935Z,271.10
2022-12-22T07:35:33.890Z,366.70
2022-12-22T07:36:33.902Z,411.10
2022-12-22T07:37:33.898Z,241.60
2022-12-22T07:38:33.867Z,324.20
2022-12-22T07:39:33.876Z,494.90
2022-12-22T07:40:36.800Z,262.20
2022-12-22T07:41:33.844Z,312.00
2022-12-22T07:42:33.847Z,295.40
2022-12-22T07:43:33.810Z,318.00
2022-12-22T07:44:33.813Z,369.20
2022-12-22T07:45:33.784Z,271.40
2022-12-22T07:46:33.863Z,280.50
2022-12-22T07:47:35.704Z,279.50
2022-12-22T07:48:33.805Z,277.50
2022-12-22T07:49:33.808Z,255.20
2022-12-22T07:50:33.771Z,232.30
2022-12-22T07:51:33.716Z,222.30
2022-12-22T07:52:33.742Z,215.20
2022-12-22T07:53:33.691Z,204.30
2022-12-22T07:54:39.631Z,232.30
2022-12-22T07:55:33.679Z,200.80
2022-12-22T07:56:33.664Z,251.10
2022-12-22T07:57:33.669Z,221.70
2022-12-22T07:58:33.638Z,257.70
2022-12-22T07:59:33.665Z,213.40
2022-12-22T08:00:34.827Z,250.90
2022-12-22T08:01:33.675Z,265.50
2022-12-22T08:02:38.779Z,251.80
2022-12-22T08:03:33.588Z,303.40
2022-12-22T08:04:33.692Z,253.10
2022-12-22T08:05:33.563Z,194.90
2022-12-22T08:06:33.570Z,235.20
2022-12-22T08:07:33.623Z,194.30
2022-12-22T08:08:33.533Z,177.00
2022-12-22T08:09:33.524Z,203.50
2022-12-22T08:10:33.633Z,156.20
2022-12-22T08:11:33.575Z,186.40
2022-12-22T08:12:33.562Z,294.40
2022-12-22T08:13:33.474Z,245.00
2022-12-22T08:14:33.468Z,213.10
2022-12-22T08:15:33.463Z,200.20
2022-12-22T08:16:33.488Z,239.60
2022-12-22T08:17:33.485Z,194.10
2022-12-22T08:18:33.435Z,227.30
2022-12-22T08:19:33.404Z,211.60
2022-12-22T08:20:33.419Z,200.30
2022-12-22T08:21:33.406Z,201.30
2022-12-22T08:22:33.420Z,193.90
2022-12-22T08:23:33.387Z,209.30
2022-12-22T08:24:33.383Z,210.10
2022-12-22T08:25:33.361Z,212.00
2022-12-22T08:26:33.360Z,228.80
2022-12-22T08:27:33.411Z,207.90
2022-12-22T08:28:33.312Z,183.80
2022-12-22T08:29:33.330Z,208.80
2022-12-22T08:30:33.336Z,197.60
2022-12-22T08:31:33.388Z,172.00
2022-12-22T08:32:33.319Z,210.90
2022-12-22T08:33:33.280Z,171.80
2022-12-22T08:34:33.297Z,159.70
2022-12-22T08:35:33.253Z,181.20
2022-12-22T08:36:33.215Z,160.00
2022-12-22T08:37:33.239Z,159.40
2022-12-22T08:38:33.197Z,184.60
2022-12-22T08:39:33.183Z,151.80
2022-12-22T08:40:33.169Z,149.40
2022-12-22T08:41:33.222Z,123.80
2022-12-22T08:42:33.195Z,143.40
2022-12-22T08:43:33.184Z,144.70
2022-12-22T08:44:33.136Z,130.50
2022-12-22T08:45:33.131Z,142.90
2022-12-22T08:46:33.143Z,136.40
2022-12-22T08:47:33.252Z,133.70
2022-12-22T08:48:33.104Z,124.70
2022-12-22T08:49:33.078Z,135.90
2022-12-22T08:50:33.075Z,152.70
2022-12-22T08:51:33.067Z,130.60
2022-12-22T08:52:33.073Z,130.50
2022-12-22T08:54:33.056Z,148.30
2022-12-22T08:55:33.012Z,153.00
2022-12-22T08:56:33.027Z,134.50
2022-12-22T08:57:33.013Z,153.90
2022-12-22T08:58:32.977Z,132.70
2022-12-22T08:59:32.960Z,147.90
2022-12-22T09:00:32.956Z,135.10
2022-12-22T09:01:33.124Z,135.50
2022-12-22T09:02:33.040Z,131.80
2022-12-22T09:03:33.037Z,143.20
2022-12-22T09:04:32.927Z,147.50
2022-12-22T09:05:32.898Z,144.30
2022-12-22T09:06:38.561Z,146.60
2022-12-22T09:07:32.907Z,138.60
2022-12-22T09:08:32.867Z,139.70
2022-12-22T09:09:32.866Z,147.70
2022-12-22T09:10:32.839Z,140.40
2022-12-22T09:11:32.830Z,137.90
2022-12-22T09:12:32.906Z,140.50
2022-12-22T09:13:32.819Z,137.30
2022-12-22T09:14:32.844Z,127.50
2022-12-22T09:15:32.785Z,141.00
2022-12-22T09:16:32.860Z,134.80
2022-12-22T09:17:32.795Z,123.20
2022-12-22T09:18:32.747Z,142.70
2022-12-22T09:19:32.772Z,129.00
2022-12-22T09:20:32.724Z,145.30
2022-12-22T09:21:32.724Z,131.20
2022-12-22T09:22:32.729Z,127.50
2022-12-22T09:23:32.701Z,144.50
2022-12-22T09:24:32.708Z,133.50
2022-12-22T09:25:32.677Z,130.30
2022-12-22T09:26:32.668Z,123.50
2022-12-22T09:27:32.688Z,129.30
2022-12-22T09:28:32.633Z,125.10
2022-12-22T09:29:32.654Z,126.50
2022-12-22T09:30:32.625Z,124.40
2022-12-22T09:31:32.692Z,125.80
2022-12-22T09:32:32.616Z,127.80
2022-12-22T09:33:32.582Z,137.30
2022-12-22T09:34:32.576Z,115.90
2022-12-22T09:35:32.584Z,121.30
2022-12-22T09:36:32.562Z,114.40
2022-12-22T09:37:32.579Z,116.00
2022-12-22T09:38:32.524Z,109.10
2022-12-22T09:39:32.515Z,106.60
2022-12-22T09:40:32.539Z,105.30
2022-12-22T09:41:32.513Z,110.90
2022-12-22T09:42:32.502Z,100.60
2022-12-22T09:43:32.475Z,102.90
2022-12-22T09:44:32.469Z,98.90
2022-12-22T09:45:32.474Z,87.00
2022-12-22T09:46:32.465Z,77.90
2022-12-22T09:47:32.467Z,81.40
2022-12-22T09:48:32.416Z,75.40
2022-12-22T09:49:32.403Z,79.20
2022-12-22T09:50:32.398Z,77.40
2022-12-22T09:51:32.405Z,75.00
2022-12-22T09:52:32.408Z,71.70
2022-12-22T09:53:32.361Z,80.30
2022-12-22T09:54:32.365Z,70.90
2022-12-22T09:55:32.361Z,71.50
2022-12-22T09:56:32.330Z,68.60
2022-12-22T09:57:32.353Z,75.20
2022-12-22T09:58:32.327Z,66.90
2022-12-22T09:59:32.315Z,68.50
2022-12-22T10:00:32.280Z,72.50
2022-12-22T10:01:32.457Z,65.90
2022-12-22T10:02:32.359Z,68.10
2022-12-22T10:03:32.288Z,60.80
2022-12-22T10:04:32.245Z,62.80
2022-12-22T10:05:32.248Z,62.60
2022-12-22T10:06:32.220Z,59.80
2022-12-22T10:07:32.243Z,63.30
2022-12-22T10:08:32.193Z,59.20
2022-12-22T10:10:32.195Z,59.30
2022-12-22T10:11:32.157Z,61.40
2022-12-22T10:12:32.208Z,61.10
2022-12-22T10:13:32.141Z,61.30
2022-12-22T10:14:32.134Z,65.40
2022-12-22T10:15:32.132Z,65.70
2022-12-22T10:16:32.172Z,58.70
2022-12-22T10:17:32.130Z,63.90
2022-12-22T10:18:32.093Z,55.80
2022-12-22T10:19:32.073Z,56.60
2022-12-22T10:20:32.054Z,56.80
2022-12-22T10:21:32.063Z,57.60
2022-12-22T10:22:32.059Z,56.10
2022-12-22T10:23:32.033Z,57.50
2022-12-22T10:24:32.017Z,50.10
2022-12-22T10:25:45.205Z,51.40
2022-12-22T10:26:32.239Z,56.10
2022-12-22T10:27:32.005Z,55.00
2022-12-22T10:28:31.990Z,47.60
2022-12-22T10:29:31.967Z,46.40
2022-12-22T10:30:31.949Z,44.10
2022-12-22T10:31:31.983Z,44.40
2022-12-22T10:32:31.950Z,46.20
2022-12-22T10:33:31.937Z,42.50
2022-12-22T10:34:31.905Z,47.80
2022-12-22T10:35:31.893Z,47.20
2022-12-22T10:36:31.889Z,46.40
2022-12-22T10:37:31.902Z,45.20
2022-12-22T10:38:31.878Z,47.00
2022-12-22T10:39:31.945Z,49.80
2022-12-22T10:40:31.848Z,49.50
2022-12-22T10:41:31.834Z,48.70
2022-12-22T10:42:31.848Z,49.60
2022-12-22T10:43:31.797Z,48.20
2022-12-22T10:44:31.801Z,47.80
2022-12-22T10:45:31.850Z,47.80
2022-12-22T10:46:31.925Z,48.80
2022-12-22T10:47:31.777Z,46.50
2022-12-22T10:48:31.754Z,46.90
2022-12-22T10:49:31.740Z,50.70
2022-12-22T10:50:31.732Z,48.50
2022-12-22T10:51:31.720Z,46.60
2022-12-22T10:52:32.416Z,43.60
2022-12-22T10:53:31.697Z,39.70
2022-12-22T10:54:31.696Z,35.10
2022-12-22T10:55:31.675Z,38.20
2022-12-22T10:56:31.660Z,36.60
2022-12-22T10:57:31.698Z,33.80
2022-12-22T10:58:31.649Z,33.30
2022-12-22T10:59:31.643Z,31.50
2022-12-22T11:00:31.635Z,30.00
2022-12-22T11:01:31.699Z,33.90
2022-12-22T11:02:31.847Z,32.20
2022-12-22T11:03:31.789Z,34.00
2022-12-22T11:04:31.571Z,31.20
2022-12-22T11:05:31.556Z,29.90
2022-12-22T11:06:31.560Z,29.00
2022-12-22T11:07:31.585Z,31.70
2022-12-22T11:08:31.544Z,29.50
2022-12-22T11:09:34.558Z,30.20
2022-12-22T11:10:31.525Z,31.90
2022-12-22T11:11:31.486Z,30.10
2022-12-22T11:12:31.501Z,29.80
2022-12-22T11:13:31.464Z,29.40
2022-12-22T11:14:31.476Z,30.50
2022-12-22T11:15:31.467Z,30.20
2022-12-22T11:16:31.480Z,31.90
2022-12-22T11:17:31.443Z,32.20
2022-12-22T11:18:31.411Z,31.40
2022-12-22T11:19:31.405Z,29.30
2022-12-22T11:20:31.403Z,29.90
2022-12-22T11:21:31.392Z,28.50
2022-12-22T11:22:31.400Z,28.90
2022-12-22T11:23:31.364Z,30.90
2022-12-22T11:24:31.343Z,28.80
2022-12-22T11:25:31.346Z,32.00
2022-12-22T11:26:31.339Z,31.40
2022-12-22T11:27:31.354Z,28.50
2022-12-22T11:28:31.297Z,31.90
2022-12-22T11:29:31.291Z,27.80
2022-12-22T11:30:31.298Z,27.70
2022-12-22T11:31:31.316Z,26.90
2022-12-22T11:32:31.278Z,27.10
2022-12-22T11:33:31.252Z,28.90
2022-12-22T11:34:31.247Z,29.40
2022-12-22T11:35:31.244Z,31.20
2022-12-22T11:36:31.217Z,29.40
2022-12-22T11:37:31.233Z,28.70
2022-12-22T11:38:31.234Z,31.40
2022-12-22T11:39:31.182Z,28.70
2022-12-22T11:40:31.161Z,28.40
2022-12-22T11:41:31.167Z,28.00
2022-12-22T11:42:31.176Z,28.50
2022-12-22T11:43:31.131Z,31.20
2022-12-22T11:44:31.125Z,28.40
2022-12-22T11:45:31.116Z,28.70
2022-12-22T11:46:31.223Z,27.50
2022-12-22T11:47:31.110Z,29.10
2022-12-22T11:48:31.085Z,27.90
2022-12-22T11:49:31.093Z,27.00
2022-12-22T11:50:59.617Z,29.50
2022-12-22T11:51:31.071Z,30.00
2022-12-22T11:52:31.050Z,29.60
2022-12-22T11:53:31.033Z,26.00
2022-12-22T11:54:31.033Z,28.10
2022-12-22T11:55:31.008Z,26.70
2022-12-22T11:56:30.994Z,29.80
2022-12-22T11:57:31.010Z,29.60
2022-12-22T11:58:30.963Z,26.10
2022-12-22T11:59:30.962Z,30.60
2022-12-22T12:00:56.194Z,29.80
2022-12-22T12:01:31.054Z,29.10
2022-12-22T12:02:31.073Z,30.00
2022-12-22T12:03:31.125Z,30.20
2022-12-22T12:04:30.939Z,30.50
2022-12-22T12:05:30.898Z,33.20
2022-12-22T12:06:30.874Z,28.90
2022-12-22T12:07:30.926Z,28.30
2022-12-22T12:08:30.872Z,30.40
2022-12-22T12:09:30.846Z,29.60
2022-12-22T12:10:30.826Z,31.20
2022-12-22T12:11:30.819Z,30.10
2022-12-22T12:12:30.847Z,28.60
2022-12-22T12:13:36.711Z,28.50
2022-12-22T12:14:30.801Z,26.40
2022-12-22T12:15:30.800Z,28.70
2022-12-22T12:16:30.896Z,29.40
2022-12-22T12:17:30.780Z,29.20
2022-12-22T12:18:30.753Z,28.30
2022-12-22T12:19:30.770Z,28.80
2022-12-22T12:20:30.715Z,27.00
2022-12-22T12:21:30.727Z,27.30
2022-12-22T12:22:30.791Z,25.60
2022-12-22T12:23:30.688Z,25.10
2022-12-22T12:24:30.689Z,25.90
2022-12-22T12:25:30.673Z,24.70
2022-12-22T12:26:30.655Z,24.70
2022-12-22T12:27:30.686Z,24.50
2022-12-22T12:28:30.640Z,22.10
2022-12-22T12:29:30.644Z,23.70
2022-12-22T12:30:39.095Z,23.00
2022-12-22T12:31:30.639Z,22.50
2022-12-22T12:32:30.608Z,22.50
2022-12-22T12:33:30.579Z,23.10
2022-12-22T12:34:30.566Z,23.40
2022-12-22T12:35:30.546Z,21.40
2022-12-22T12:36:30.560Z,24.40
2022-12-22T12:37:30.548Z,23.80
2022-12-22T12:39:06.146Z,25.40
2022-12-22T12:39:30.524Z,24.90
2022-12-22T12:40:30.503Z,24.00
2022-12-22T12:41:30.489Z,21.20
2022-12-22T12:42:30.502Z,23.30
2022-12-22T12:43:30.453Z,25.00
2022-12-22T12:44:30.469Z,22.70